createdAt,value
2018-04-07T00:01:12.705Z,0.90
2018-04-07T00:03:41.707Z,0.93
2018-04-07T00:06:09.222Z,0.63
2018-04-07T00:08:36.719Z,0.80
2018-04-07T00:11:04.240Z,0.80
2018-04-07T00:13:31.742Z,0.68
2018-04-07T00:15:59.256Z,0.70
2018-04-07T00:18:26.743Z,0.90
2018-04-07T00:20:54.234Z,0.85
2018-04-07T00:23:21.759Z,0.73
2018-04-07T00:25:49.270Z,0.70
2018-04-07T00:28:16.783Z,0.80
2018-04-07T00:30:45.307Z,0.88
2018-04-07T00:33:12.870Z,0.80
2018-04-07T00:35:40.356Z,0.90
2018-04-07T00:38:08.629Z,0.90
2018-04-07T00:40:36.146Z,0.90
2018-04-07T00:43:03.639Z,0.80
2018-04-07T00:45:31.177Z,0.90
2018-04-07T00:47:58.665Z,0.80
2018-04-07T00:50:26.155Z,0.80
2018-04-07T00:52:57.798Z,0.90
2018-04-07T00:55:25.297Z,0.70
2018-04-07T00:57:52.837Z,1.10
2018-04-07T01:00:21.142Z,0.90
2018-04-07T01:02:48.647Z,0.73
2018-04-07T01:05:16.153Z,0.67
2018-04-07T01:07:44.428Z,0.80
2018-04-07T01:10:12.701Z,0.90
2018-04-07T01:12:40.215Z,0.83
2018-04-07T01:15:07.730Z,0.80
2018-04-07T01:17:36.025Z,0.80
2018-04-07T01:20:04.290Z,0.80
2018-04-07T01:22:32.570Z,1.30
2018-04-07T01:25:00.052Z,1.20
2018-04-07T01:27:27.568Z,1.00
2018-04-07T01:29:55.058Z,1.00
2018-04-07T01:32:22.569Z,1.20
2018-04-07T01:34:50.044Z,1.07
2018-04-07T01:37:18.294Z,1.05
2018-04-07T01:39:45.801Z,0.90
2018-04-07T01:42:13.311Z,1.10
2018-04-07T01:44:41.576Z,0.90
2018-04-07T01:47:09.835Z,0.80
2018-04-07T01:49:37.347Z,1.00
2018-04-07T01:52:04.876Z,0.80
2018-04-07T01:54:32.383Z,0.73
2018-04-07T01:56:59.909Z,0.93
2018-04-07T01:59:28.157Z,0.80
2018-04-07T02:01:55.662Z,0.80
2018-04-07T02:04:23.933Z,0.95
2018-04-07T02:06:52.206Z,1.00
2018-04-07T02:09:19.710Z,0.97
2018-04-07T02:11:47.235Z,1.00
2018-04-07T02:14:15.523Z,0.87
2018-04-07T02:16:43.771Z,1.10
2018-04-07T02:19:11.293Z,0.87
2018-04-07T02:21:38.785Z,0.90
2018-04-07T02:24:06.297Z,0.90
2018-04-07T02:26:34.554Z,0.87
2018-04-07T02:29:02.051Z,0.90
2018-04-07T02:31:29.550Z,0.93
2018-04-07T02:33:57.055Z,0.93
2018-04-07T02:36:25.335Z,1.03
2018-04-07T02:38:53.604Z,0.90
2018-04-07T02:41:21.119Z,0.80
2018-04-07T02:43:48.608Z,0.80
2018-04-07T02:46:16.100Z,1.17
2018-04-07T02:48:44.526Z,0.80
2018-04-07T02:51:12.026Z,0.90
2018-04-07T02:53:39.534Z,1.27
2018-04-07T02:56:07.028Z,1.10
2018-04-07T02:58:34.533Z,0.80
2018-04-07T03:01:02.036Z,1.00
2018-04-07T03:03:29.532Z,1.30
2018-04-07T03:05:57.053Z,1.10
2018-04-07T03:08:24.547Z,1.20
2018-04-07T03:10:52.048Z,1.10
2018-04-07T03:13:19.539Z,1.30
2018-04-07T03:15:47.045Z,1.10
2018-04-07T03:18:14.533Z,1.10
2018-04-07T03:20:42.042Z,1.00
2018-04-07T03:23:09.559Z,1.00
2018-04-07T03:25:37.047Z,0.87
2018-04-07T03:28:05.323Z,0.93
2018-04-07T03:30:33.591Z,1.17
2018-04-07T03:33:01.887Z,1.10
2018-04-07T03:35:30.151Z,0.88
2018-04-07T03:37:57.637Z,0.90
2018-04-07T03:40:25.142Z,1.00
2018-04-07T03:42:52.652Z,1.00
2018-04-07T03:45:20.932Z,0.90
2018-04-07T03:47:49.196Z,1.30
2018-04-07T03:50:16.682Z,1.00
2018-04-07T03:52:44.966Z,1.00
2018-04-07T03:55:13.217Z,1.17
2018-04-07T03:57:40.718Z,1.10
2018-04-07T04:00:08.250Z,1.00
2018-04-07T04:02:35.732Z,1.20
2018-04-07T04:05:03.274Z,1.37
2018-04-07T04:07:30.782Z,1.20
2018-04-07T04:09:58.270Z,1.07
2018-04-07T04:12:25.786Z,1.10
2018-04-07T04:14:54.050Z,0.90
2018-04-07T04:17:22.358Z,1.10
2018-04-07T04:19:49.869Z,1.13
2018-04-07T04:22:18.270Z,1.00
2018-04-07T04:24:45.772Z,1.00
2018-04-07T04:27:13.263Z,1.07
2018-04-07T04:29:40.767Z,1.20
2018-04-07T04:32:09.041Z,1.02
2018-04-07T04:34:36.522Z,1.93
2018-04-07T04:37:04.794Z,1.03
2018-04-07T04:39:33.063Z,1.30
2018-04-07T04:42:00.618Z,1.13
2018-04-07T04:44:28.107Z,1.20
2018-04-07T04:46:56.363Z,1.23
2018-04-07T04:49:23.870Z,1.37
2018-04-07T04:51:52.131Z,1.30
2018-04-07T04:54:20.400Z,1.17
2018-04-07T04:56:48.741Z,1.00
2018-04-07T04:59:17.003Z,0.90
2018-04-07T05:01:44.519Z,1.10
2018-04-07T05:04:12.004Z,1.20
2018-04-07T05:06:40.285Z,1.50
2018-04-07T05:09:08.546Z,1.20
2018-04-07T05:11:36.046Z,1.10
2018-04-07T05:14:03.580Z,1.10
2018-04-07T05:16:31.882Z,1.20
2018-04-07T05:18:59.406Z,1.30
2018-04-07T05:21:26.904Z,1.30
2018-04-07T05:23:54.404Z,0.95
2018-04-07T05:26:21.913Z,1.23
2018-04-07T05:28:50.188Z,1.20
2018-04-07T05:31:18.398Z,0.98
2018-04-07T05:33:45.909Z,1.00
2018-04-07T05:36:13.407Z,1.10
2018-04-07T05:38:41.717Z,1.10
2018-04-07T05:41:09.183Z,0.90
2018-04-07T05:43:36.691Z,1.10
2018-04-07T05:46:04.215Z,1.03
2018-04-07T05:51:53.432Z,1.17
2018-04-07T05:57:19.378Z,0.87
2018-04-07T05:59:47.637Z,1.00
2018-04-07T06:02:15.906Z,0.80
2018-04-07T06:04:43.430Z,1.30
2018-04-07T06:07:10.926Z,1.07
2018-04-07T06:09:38.417Z,1.20
2018-04-07T06:12:06.686Z,1.27
2018-04-07T06:14:34.951Z,1.10
2018-04-07T06:17:02.456Z,1.10
2018-04-07T06:19:29.949Z,1.03
2018-04-07T06:21:57.433Z,1.20
2018-04-07T06:24:24.929Z,1.00
2018-04-07T06:26:52.456Z,0.93
2018-04-07T06:29:19.974Z,1.13
2018-04-07T06:31:47.470Z,0.87
2018-04-07T06:34:14.991Z,0.90
2018-04-07T06:36:42.471Z,1.03
2018-04-07T06:39:09.952Z,1.17
2018-04-07T06:41:37.462Z,1.47
2018-04-07T06:44:05.726Z,1.30
2018-04-07T06:46:33.250Z,1.02
2018-04-07T06:49:00.762Z,1.40
2018-04-07T06:51:28.262Z,1.43
2018-04-07T06:53:55.764Z,1.27
2018-04-07T06:56:23.289Z,1.23
2018-04-07T06:58:50.780Z,1.20
2018-04-07T07:01:18.422Z,1.10
2018-04-07T07:03:45.948Z,1.00
2018-04-07T07:06:14.202Z,1.10
2018-04-07T07:08:41.723Z,0.90
2018-04-07T07:11:09.250Z,1.30
2018-04-07T07:13:36.739Z,0.97
2018-04-07T07:16:04.225Z,1.20
2018-04-07T07:18:31.766Z,0.80
2018-04-07T07:20:59.280Z,1.27
2018-04-07T07:23:26.774Z,1.20
2018-04-07T07:25:55.063Z,1.20
2018-04-07T07:28:23.322Z,1.10
2018-04-07T07:30:50.842Z,1.10
2018-04-07T07:33:18.381Z,1.10
2018-04-07T07:35:45.867Z,1.20
2018-04-07T07:38:13.357Z,1.25
2018-04-07T07:40:40.861Z,1.20
2018-04-07T07:43:09.115Z,1.20
2018-04-07T07:45:36.613Z,3.20
2018-04-07T07:48:04.135Z,6.03
2018-04-07T07:50:31.633Z,1.40
2018-04-07T07:52:59.127Z,1.20
2018-04-07T07:55:26.647Z,1.30
2018-04-07T07:57:54.906Z,1.20
2018-04-07T08:00:22.415Z,0.93
2018-04-07T08:02:49.916Z,1.40
2018-04-07T08:05:17.403Z,1.40
2018-04-07T08:07:45.681Z,1.03
2018-04-07T08:10:13.952Z,1.40
2018-04-07T08:12:41.490Z,1.40
2018-04-07T08:15:09.004Z,1.70
2018-04-07T08:17:37.279Z,1.83
2018-04-07T08:20:05.566Z,1.80
2018-04-07T08:22:33.835Z,2.43
2018-04-07T08:25:01.365Z,2.10
2018-04-07T08:27:28.858Z,2.33
2018-04-07T08:29:57.113Z,2.37
2018-04-07T08:32:24.634Z,2.60
2018-04-07T08:34:52.145Z,2.00
2018-04-07T08:37:19.659Z,2.17
2018-04-07T08:39:47.172Z,2.80
2018-04-07T08:42:14.700Z,3.40
2018-04-07T08:44:42.198Z,2.70
2018-04-07T08:47:09.728Z,2.60
2018-04-07T08:49:37.227Z,2.40
2018-04-07T08:52:04.755Z,2.10
2018-04-07T08:54:32.263Z,2.80
2018-04-07T08:56:59.768Z,2.73
2018-04-07T08:59:27.346Z,3.00
2018-04-07T09:01:54.850Z,2.90
2018-04-07T09:04:22.353Z,3.03
2018-04-07T09:06:49.875Z,2.50
2018-04-07T09:09:17.367Z,3.83
2018-04-07T09:11:45.655Z,3.80
2018-04-07T09:14:13.148Z,3.30
2018-04-07T09:16:40.659Z,3.43
2018-04-07T09:19:08.999Z,3.53
2018-04-07T09:21:36.515Z,3.17
2018-04-07T09:24:04.819Z,3.50
2018-04-07T09:26:32.339Z,2.87
2018-04-07T09:28:59.848Z,2.80
2018-04-07T09:31:27.386Z,3.28
2018-04-07T09:33:55.646Z,3.40
2018-04-07T09:36:23.180Z,3.70
2018-04-07T09:38:50.675Z,4.53
2018-04-07T09:41:18.165Z,4.40
2018-04-07T09:43:45.714Z,4.27
2018-04-07T09:46:14.006Z,3.70
2018-04-07T09:48:41.517Z,3.83
2018-04-07T09:51:09.014Z,3.80
2018-04-07T09:53:37.275Z,4.20
2018-04-07T09:56:04.792Z,5.40
2018-04-07T09:58:32.301Z,4.62
2018-04-07T10:01:00.619Z,4.23
2018-04-07T10:03:29.416Z,4.50
2018-04-07T10:05:56.939Z,4.77
2018-04-07T10:08:24.441Z,5.20
2018-04-07T10:10:52.761Z,5.17
2018-04-07T10:13:20.268Z,5.80
2018-04-07T10:15:48.551Z,5.20
2018-04-07T10:18:16.806Z,6.17
2018-04-07T10:20:44.320Z,4.90
2018-04-07T10:23:11.832Z,5.30
2018-04-07T10:25:39.372Z,5.30
2018-04-07T10:28:06.912Z,5.80
2018-04-07T10:30:34.428Z,5.80
2018-04-07T10:33:01.966Z,5.40
2018-04-07T10:35:29.475Z,6.00
2018-04-07T10:37:57.739Z,5.27
2018-04-07T10:40:25.241Z,4.80
2018-04-07T10:42:52.756Z,5.67
2018-04-07T10:45:20.285Z,5.80
2018-04-07T10:47:47.775Z,6.10
2018-04-07T10:50:15.288Z,5.80
2018-04-07T10:52:42.817Z,6.17
2018-04-07T10:55:10.338Z,5.17
2018-04-07T10:57:37.858Z,6.23
2018-04-07T11:00:06.171Z,6.73
2018-04-07T11:02:33.694Z,6.93
2018-04-07T11:05:01.199Z,6.73
2018-04-07T11:07:28.778Z,5.90
2018-04-07T11:09:56.299Z,6.43
2018-04-07T11:12:24.595Z,6.00
2018-04-07T11:14:52.108Z,6.17
2018-04-07T11:17:19.640Z,5.67
2018-04-07T11:19:47.150Z,6.40
2018-04-07T11:22:14.651Z,6.30
2018-04-07T11:24:42.169Z,5.33
2018-04-07T11:27:09.681Z,5.30
2018-04-07T11:29:37.193Z,5.93
2018-04-07T11:32:04.714Z,6.20
2018-04-07T11:34:32.211Z,5.67
2018-04-07T11:36:59.739Z,6.37
2018-04-07T11:39:27.245Z,5.20
2018-04-07T11:41:54.763Z,4.43
2018-04-07T11:44:22.264Z,5.33
2018-04-07T11:46:49.786Z,4.93
2018-04-07T11:49:18.992Z,5.10
2018-04-07T11:51:46.494Z,5.20
2018-04-07T11:54:14.016Z,5.47
2018-04-07T11:56:41.512Z,6.50
2018-04-07T11:59:09.030Z,5.63
2018-04-07T12:01:37.308Z,4.97
2018-04-07T12:04:04.840Z,5.90
2018-04-07T12:06:32.332Z,6.10
2018-04-07T12:09:00.596Z,4.80
2018-04-07T12:11:28.128Z,5.07
2018-04-07T12:13:55.614Z,4.60
2018-04-07T12:16:23.158Z,4.93
2018-04-07T12:18:50.737Z,5.23
2018-04-07T12:21:18.953Z,5.30
2018-04-07T12:23:46.456Z,5.53
2018-04-07T12:26:13.967Z,6.67
2018-04-07T12:28:42.274Z,5.60
2018-04-07T12:31:09.818Z,5.60
2018-04-07T12:33:38.260Z,5.40
2018-04-07T12:36:05.787Z,4.87
2018-04-07T12:38:33.302Z,6.13
2018-04-07T12:41:00.828Z,5.70
2018-04-07T12:43:28.343Z,5.37
2018-04-07T12:45:56.624Z,5.53
2018-04-07T12:48:24.890Z,5.50
2018-04-07T12:50:52.391Z,4.80
2018-04-07T12:53:20.695Z,4.17
2018-04-07T12:55:48.200Z,3.63
2018-04-07T12:58:15.711Z,4.00
2018-04-07T13:00:43.218Z,5.10
2018-04-07T13:03:10.736Z,5.83
2018-04-07T13:05:38.260Z,5.20
2018-04-07T13:08:06.524Z,6.23
2018-04-07T13:10:34.014Z,5.27
2018-04-07T13:13:02.319Z,4.40
2018-04-07T13:15:29.807Z,6.03
2018-04-07T13:17:57.406Z,5.50
2018-04-07T13:20:25.700Z,4.90
2018-04-07T13:22:53.989Z,4.40
2018-04-07T13:25:22.317Z,3.27
2018-04-07T13:27:49.818Z,3.43
2018-04-07T13:30:17.344Z,2.80
2018-04-07T13:32:44.871Z,2.70
2018-04-07T13:35:12.374Z,3.57
2018-04-07T13:37:39.900Z,4.70
2018-04-07T13:40:07.409Z,5.40
2018-04-07T13:42:34.935Z,4.40
2018-04-07T13:45:02.447Z,4.73
2018-04-07T13:47:29.968Z,4.43
2018-04-07T13:49:57.474Z,3.07
2018-04-07T13:52:25.003Z,5.27
2018-04-07T13:54:52.515Z,4.70
2018-04-07T13:57:20.812Z,4.30
2018-04-07T13:59:49.080Z,5.63
2018-04-07T14:02:16.586Z,4.97
2018-04-07T14:04:44.085Z,6.77
2018-04-07T14:07:11.624Z,5.80
2018-04-07T14:09:39.122Z,5.10
2018-04-07T14:12:06.674Z,4.93
2018-04-07T14:14:34.207Z,3.77
2018-04-07T14:17:01.722Z,3.23
2018-04-07T14:19:29.264Z,4.77
2018-04-07T14:21:56.749Z,3.33
2018-04-07T14:24:25.030Z,3.10
2018-04-07T14:26:53.327Z,2.53
2018-04-07T14:29:21.583Z,3.10
2018-04-07T14:31:49.117Z,4.43
2018-04-07T14:34:16.684Z,5.67
2018-04-07T14:36:44.334Z,3.90
2018-04-07T14:39:11.894Z,4.77
2018-04-07T14:41:39.450Z,5.07
2018-04-07T14:44:07.000Z,6.60
2018-04-07T14:46:34.516Z,4.40
2018-04-07T14:49:02.071Z,3.57
2018-04-07T14:51:29.602Z,3.90
2018-04-07T14:53:57.213Z,5.57
2018-04-07T14:56:24.818Z,3.03
2018-04-07T14:58:53.088Z,2.87
2018-04-07T15:01:20.673Z,2.23
2018-04-07T15:03:48.198Z,1.90
2018-04-07T15:06:15.721Z,2.00
2018-04-07T15:08:43.280Z,2.00
2018-04-07T15:11:10.806Z,1.83
2018-04-07T15:13:38.345Z,1.60
2018-04-07T15:16:05.851Z,1.83
2018-04-07T15:18:33.341Z,1.80
2018-04-07T15:21:00.874Z,2.20
2018-04-07T15:23:28.375Z,2.00
2018-04-07T15:25:55.880Z,1.87
2018-04-07T15:28:24.171Z,1.85
2018-04-07T15:30:52.433Z,1.90
2018-04-07T15:33:19.947Z,1.90
2018-04-07T15:35:47.438Z,1.93
2018-04-07T15:38:14.954Z,1.90
2018-04-07T15:40:42.477Z,2.03
2018-04-07T15:43:09.969Z,2.13
2018-04-07T15:45:38.251Z,2.03
2018-04-07T15:48:05.760Z,2.50
2018-04-07T15:50:33.296Z,2.43
2018-04-07T15:53:01.557Z,2.00
2018-04-07T15:55:29.064Z,2.55
2018-04-07T15:57:56.582Z,2.10
2018-04-07T16:00:24.836Z,2.10
2018-04-07T16:02:52.349Z,2.17
2018-04-07T16:05:19.867Z,2.10
2018-04-07T16:07:47.386Z,2.10
2018-04-07T16:10:14.945Z,1.90
2018-04-07T16:12:42.462Z,1.80
2018-04-07T16:15:10.726Z,1.90
2018-04-07T16:17:38.245Z,2.50
2018-04-07T16:20:05.746Z,2.53
2018-04-07T16:22:33.298Z,2.30
2018-04-07T16:25:00.792Z,2.00
2018-04-07T16:27:28.287Z,2.10
2018-04-07T16:29:55.832Z,2.13
2018-04-07T16:32:24.118Z,2.33
2018-04-07T16:34:52.435Z,2.30
2018-04-07T16:37:19.971Z,2.30
2018-04-07T16:39:47.474Z,1.83
2018-04-07T16:42:15.033Z,2.50
2018-04-07T16:44:42.542Z,2.30
2018-04-07T16:47:10.842Z,1.97
2018-04-07T16:49:38.355Z,2.10
2018-04-07T16:52:05.852Z,2.20
2018-04-07T16:54:34.167Z,2.10
2018-04-07T16:57:01.675Z,1.80
2018-04-07T16:59:29.219Z,1.93
2018-04-07T17:01:56.740Z,2.17
2018-04-07T17:04:24.255Z,2.55
2018-04-07T17:06:51.770Z,2.60
2018-04-07T17:09:19.259Z,2.60
2018-04-07T17:11:46.785Z,2.07
2018-04-07T17:14:14.278Z,2.13
2018-04-07T17:16:41.772Z,2.33
2018-04-07T17:19:09.285Z,2.73
2018-04-07T17:21:36.773Z,2.67
2018-04-07T17:24:04.334Z,2.00
2018-04-07T17:26:31.844Z,2.47
2018-04-07T17:29:00.120Z,2.27
2018-04-07T17:31:27.661Z,2.47
2018-04-07T17:33:55.178Z,2.40
2018-04-07T17:36:22.694Z,2.30
2018-04-07T17:38:50.192Z,2.03
2018-04-07T17:41:18.459Z,2.10
2018-04-07T17:43:45.982Z,2.70
2018-04-07T17:46:13.492Z,2.20
2018-04-07T17:48:40.998Z,2.40
2018-04-07T17:51:08.518Z,2.07
2018-04-07T17:53:36.778Z,3.00
2018-04-07T17:56:04.313Z,2.77
2018-04-07T17:58:31.810Z,2.40
2018-04-07T18:00:59.330Z,2.93
2018-04-07T18:03:26.829Z,2.83
2018-04-07T18:05:54.334Z,2.67
2018-04-07T18:08:21.846Z,3.07
2018-04-07T18:10:49.344Z,2.90
2018-04-07T18:13:18.566Z,2.47
2018-04-07T18:15:46.065Z,2.80
2018-04-07T18:18:13.587Z,2.37
2018-04-07T18:20:41.110Z,2.53
2018-04-07T18:23:08.613Z,2.80
2018-04-07T18:25:36.127Z,2.50
2018-04-07T18:28:03.647Z,2.80
2018-04-07T18:30:31.179Z,3.03
2018-04-07T18:32:59.453Z,3.17
2018-04-07T18:35:26.952Z,3.23
2018-04-07T18:37:54.478Z,3.20
2018-04-07T18:40:21.958Z,2.70
2018-04-07T18:42:50.234Z,2.90
2018-04-07T18:45:18.513Z,2.97
2018-04-07T18:47:46.777Z,3.10
2018-04-07T18:50:14.307Z,2.60
2018-04-07T18:52:41.800Z,2.67
2018-04-07T18:55:09.318Z,2.80
2018-04-07T18:57:36.805Z,2.80
2018-04-07T19:00:04.332Z,2.83
2018-04-07T19:02:31.838Z,2.47
2018-04-07T19:04:59.330Z,3.10
2018-04-07T19:07:26.859Z,3.27
2018-04-07T19:09:54.391Z,2.90
2018-04-07T19:12:21.902Z,3.03
2018-04-07T19:14:49.436Z,3.10
2018-04-07T19:17:16.932Z,3.23
2018-04-07T19:19:44.444Z,2.40
2018-04-07T19:22:11.947Z,2.83
2018-04-07T19:24:39.465Z,2.70
2018-04-07T19:27:06.974Z,2.80
2018-04-07T19:29:34.484Z,2.97
2018-04-07T19:32:02.035Z,2.87
2018-04-07T19:34:29.526Z,3.08
2018-04-07T19:36:57.027Z,2.87
2018-04-07T19:39:24.548Z,2.87
2018-04-07T19:41:52.053Z,3.47
2018-04-07T19:44:19.575Z,2.80
2018-04-07T19:46:47.078Z,2.57
2018-04-07T19:49:14.622Z,2.77
2018-04-07T19:51:42.988Z,2.90
2018-04-07T19:54:10.507Z,2.20
2018-04-07T19:56:38.817Z,3.10
2018-04-07T19:59:06.324Z,3.00
2018-04-07T20:01:33.831Z,2.43
2018-04-07T20:04:02.103Z,2.50
2018-04-07T20:06:30.363Z,2.60
2018-04-07T20:08:57.885Z,2.53
2018-04-07T20:11:25.374Z,2.60
2018-04-07T20:13:52.883Z,2.57
2018-04-07T20:16:20.419Z,2.60
2018-04-07T20:18:47.917Z,3.30
2018-04-07T20:21:15.425Z,2.40
2018-04-07T20:23:42.922Z,3.00
2018-04-07T20:26:11.196Z,2.43
2018-04-07T20:28:38.739Z,2.67
2018-04-07T20:31:06.242Z,2.43
2018-04-07T20:33:34.519Z,2.93
2018-04-07T20:36:02.786Z,2.43
2018-04-07T20:38:30.299Z,2.70
2018-04-07T20:40:57.815Z,2.87
2018-04-07T20:43:25.309Z,2.55
2018-04-07T20:45:52.921Z,2.23
2018-04-07T20:48:21.336Z,2.53
2018-04-07T20:50:49.650Z,2.80
2018-04-07T20:53:17.176Z,2.93
2018-04-07T20:55:45.448Z,2.93
2018-04-07T20:58:12.978Z,2.97
2018-04-07T21:00:40.477Z,2.60
2018-04-07T21:03:07.981Z,2.60
2018-04-07T21:05:35.505Z,3.10
2018-04-07T21:08:03.004Z,2.83
2018-04-07T21:10:30.510Z,2.90
2018-04-07T21:12:58.023Z,2.70
2018-04-07T21:15:25.513Z,2.80
2018-04-07T21:17:53.029Z,2.70
2018-04-07T21:20:21.298Z,2.95
2018-04-07T21:22:49.031Z,2.70
2018-04-07T21:25:16.698Z,2.73
2018-04-07T21:27:44.381Z,2.77
2018-04-07T21:30:12.954Z,3.07
2018-04-07T21:32:40.686Z,3.17
2018-04-07T21:35:08.179Z,3.20
2018-04-07T21:37:35.698Z,2.97
2018-04-07T21:40:03.993Z,2.90
2018-04-07T21:42:31.505Z,2.70
2018-04-07T21:44:59.000Z,2.40
2018-04-07T21:47:27.260Z,2.60
2018-04-07T21:49:54.775Z,2.40
2018-04-07T21:52:22.285Z,2.47
2018-04-07T21:54:49.793Z,2.10
2018-04-07T21:57:17.295Z,3.07
2018-04-07T21:59:44.794Z,2.63
2018-04-07T22:02:13.088Z,2.67
2018-04-07T22:04:41.381Z,2.80
2018-04-07T22:07:08.900Z,2.43
2018-04-07T22:09:36.409Z,2.97
2018-04-07T22:12:03.980Z,3.03
2018-04-07T22:14:31.470Z,2.23
2018-04-07T22:16:58.994Z,2.67
2018-04-07T22:19:26.522Z,2.83
2018-04-07T22:21:54.039Z,2.53
2018-04-07T22:24:21.555Z,2.80
2018-04-07T22:26:49.054Z,3.07
2018-04-07T22:29:16.550Z,2.13
2018-04-07T22:31:44.103Z,2.70
2018-04-07T22:34:11.588Z,2.30
2018-04-07T22:36:39.091Z,2.73
2018-04-07T22:39:06.621Z,3.00
2018-04-07T22:41:34.129Z,3.30
2018-04-07T22:44:01.640Z,2.75
2018-04-07T22:46:29.187Z,3.07
2018-04-07T22:48:57.475Z,2.73
2018-04-07T22:51:24.959Z,2.70
2018-04-07T22:53:52.449Z,2.53
2018-04-07T22:56:20.723Z,2.43
2018-04-07T22:58:48.982Z,2.80
2018-04-07T23:01:16.502Z,2.53
2018-04-07T23:03:43.999Z,2.80
2018-04-07T23:06:11.509Z,2.07
2018-04-07T23:08:39.025Z,2.87
2018-04-07T23:11:06.516Z,2.30
2018-04-07T23:13:34.808Z,2.40
2018-04-07T23:16:02.302Z,3.00
2018-04-07T23:18:29.813Z,2.43
2018-04-07T23:20:58.136Z,2.67
2018-04-07T23:23:25.623Z,2.50
2018-04-07T23:25:53.159Z,2.87
2018-04-07T23:28:20.648Z,2.23
2018-04-07T23:30:48.146Z,2.90
2018-04-07T23:33:16.431Z,3.70
2018-04-07T23:35:44.707Z,3.83
2018-04-07T23:38:12.993Z,4.87
2018-04-07T23:40:41.242Z,2.30
2018-04-07T23:43:08.747Z,2.20
2018-04-07T23:45:37.012Z,3.50
2018-04-07T23:48:05.281Z,3.10
2018-04-07T23:50:32.785Z,2.60
2018-04-07T23:53:00.286Z,3.20
2018-04-07T23:55:27.782Z,3.97
2018-04-07T23:57:56.066Z,2.40
